Meath Environmental Platform

Observations for Trim Patrick St

Time AQI Temp °C Hum % Pres Pa CO μg/m³ H₂S μg/m³ NO μg/m³ NO₂ μg/m³ O₃ μg/m³ SO₂ μg/m³ PM1 μg/m³ PM2.5 μg/m³ PM10 μg/m³
Thursday 27 August 2026
02:08 2 15.5 88 38,459 0.22 3.15 1.7 20.47 30.3 0 20.86 28.64 31.5
02:07 2 15.5 88 38,459 0.24 3.77 1.65 26.89 31.16 0 20.86 28.65 28.98
02:06 2 15.5 88 38,459 0.22 3.15 1.73 23.03 31.35 0 21.72 29.32 30.22
02:05 2 15.5 88 38,459 0.22 1.43 1.65 21.11 29.25 0 20 29.32 32.25
02:04 3 15.5 88 38,459 0.21 1.01 1.86 16.21 34.04 0 20 28.65 28.98
02:03 2 15.5 88 38,459 0.21 3.17 1.88 17.59 32.68 0 18.29 26.6 29.26
02:02 3 15.5 87 38,459 0.21 6.35 1.72 32.54 34.83 0 21.72 29.38 32.32
02:01 2 15.4 88 38,459 0.24 5.31 1.91 28.84 30.97 0 20 26.6 29.26
02:00 2 15.4 88 38,459 0.21 4.61 1.88 26.69 30.09 0 20 27.98 30.78
01:59 2 15.4 88 38,459 0.22 3.02 1.68 21.65 30.83 0 20 28.67 31.53
01:58 2 15.4 88 38,459 0.22 5.65 1.74 24.27 29.93 0 21.72 30.72 33.79
01:57 2 15.4 87 38,459 0.21 5.23 1.89 32.86 32.55 0 20.86 29.39 32.33
01:56 3 15.4 88 38,459 0.21 1.74 1.69 16.86 33.46 0 21.72 29.36 32.3
01:54 3 15.4 87 38,459 0.21 4.32 1.77 27.77 29.29 0 22.57 30.76 31.66
01:53 3 15.4 87 38,459 0.21 1.69 1.76 20.95 28.08 0 20.86 28.02 30.83
01:52 3 15.4 87 38,459 0.2 3.9 1.82 23.11 32.49 0 21.72 30.11 31.73
01:51 3 15.4 86 38,459 0.21 4.37 1.72 21.53 33.94 0 20.86 30.19 33.21
01:50 3 15.4 87 38,459 0.22 5.83 1.83 33.59 22.86 0 21.72 30.12 30.48
01:49 3 15.4 87 38,459 0.2 3.04 1.87 25.75 27.02 0 20.86 29.45 32.39
01:48 3 15.4 87 38,459 0.2 2.99 1.89 19.39 29.44 0 20.86 30.09 33.1